sensor_id;sensor_type;location;lat;lon;timestamp;P1;durP1;ratioP1;P2;durP2;ratioP2
76417;SDS011;65250;47.602;19.002;2024-02-14T00:00:54;4.80;;;2.55;;
76417;SDS011;65250;47.602;19.002;2024-02-14T00:03:22;6.45;;;3.15;;
76417;SDS011;65250;47.602;19.002;2024-02-14T00:05:50;4.70;;;2.20;;
76417;SDS011;65250;47.602;19.002;2024-02-14T00:08:19;4.63;;;2.20;;
76417;SDS011;65250;47.602;19.002;2024-02-14T00:10:45;4.70;;;2.15;;
76417;SDS011;65250;47.602;19.002;2024-02-14T00:13:13;4.18;;;2.90;;
76417;SDS011;65250;47.602;19.002;2024-02-14T00:15:40;5.97;;;2.65;;
76417;SDS011;65250;47.602;19.002;2024-02-14T00:18:08;7.80;;;2.55;;
76417;SDS011;65250;47.602;19.002;2024-02-14T00:20:35;5.32;;;2.92;;
76417;SDS011;65250;47.602;19.002;2024-02-14T00:23:02;4.32;;;2.72;;
76417;SDS011;65250;47.602;19.002;2024-02-14T00:25:29;4.88;;;2.97;;
76417;SDS011;65250;47.602;19.002;2024-02-14T00:27:56;4.65;;;2.65;;
76417;SDS011;65250;47.602;19.002;2024-02-14T00:30:25;6.97;;;3.10;;
76417;SDS011;65250;47.602;19.002;2024-02-14T00:32:56;5.47;;;2.70;;
76417;SDS011;65250;47.602;19.002;2024-02-14T00:35:23;3.92;;;2.47;;
76417;SDS011;65250;47.602;19.002;2024-02-14T00:37:51;4.05;;;2.33;;
76417;SDS011;65250;47.602;19.002;2024-02-14T00:40:18;4.22;;;2.45;;
76417;SDS011;65250;47.602;19.002;2024-02-14T00:42:45;5.45;;;2.70;;
76417;SDS011;65250;47.602;19.002;2024-02-14T00:45:12;4.65;;;2.47;;
76417;SDS011;65250;47.602;19.002;2024-02-14T00:47:39;4.95;;;3.00;;
76417;SDS011;65250;47.602;19.002;2024-02-14T00:50:06;5.10;;;2.55;;
76417;SDS011;65250;47.602;19.002;2024-02-14T00:52:33;4.88;;;2.80;;
76417;SDS011;65250;47.602;19.002;2024-02-14T00:55:01;7.38;;;2.85;;
76417;SDS011;65250;47.602;19.002;2024-02-14T00:57:30;7.78;;;2.85;;
76417;SDS011;65250;47.602;19.002;2024-02-14T00:59:58;4.63;;;2.70;;
76417;SDS011;65250;47.602;19.002;2024-02-14T01:02:26;4.97;;;2.50;;
76417;SDS011;65250;47.602;19.002;2024-02-14T01:04:53;5.78;;;3.53;;
76417;SDS011;65250;47.602;19.002;2024-02-14T01:07:20;5.45;;;3.00;;
76417;SDS011;65250;47.602;19.002;2024-02-14T01:09:47;5.15;;;2.78;;
76417;SDS011;65250;47.602;19.002;2024-02-14T01:12:14;5.95;;;2.58;;
76417;SDS011;65250;47.602;19.002;2024-02-14T01:14:41;5.57;;;3.08;;
76417;SDS011;65250;47.602;19.002;2024-02-14T01:17:08;5.60;;;2.83;;
76417;SDS011;65250;47.602;19.002;2024-02-14T01:19:35;7.65;;;2.95;;
76417;SDS011;65250;47.602;19.002;2024-02-14T01:22:02;5.13;;;2.97;;
76417;SDS011;65250;47.602;19.002;2024-02-14T01:24:29;6.13;;;2.97;;
76417;SDS011;65250;47.602;19.002;2024-02-14T01:26:57;5.00;;;2.67;;
76417;SDS011;65250;47.602;19.002;2024-02-14T01:29:24;4.72;;;2.47;;
76417;SDS011;65250;47.602;19.002;2024-02-14T01:31:51;5.00;;;2.38;;
76417;SDS011;65250;47.602;19.002;2024-02-14T01:34:17;6.28;;;1.85;;
76417;SDS011;65250;47.602;19.002;2024-02-14T01:36:45;5.00;;;2.20;;
76417;SDS011;65250;47.602;19.002;2024-02-14T01:39:12;3.67;;;1.60;;
76417;SDS011;65250;47.602;19.002;2024-02-14T01:41:45;5.20;;;2.38;;
76417;SDS011;65250;47.602;19.002;2024-02-14T01:44:15;5.03;;;1.88;;
76417;SDS011;65250;47.602;19.002;2024-02-14T01:46:43;4.47;;;2.13;;
76417;SDS011;65250;47.602;19.002;2024-02-14T01:49:11;4.05;;;2.25;;
76417;SDS011;65250;47.602;19.002;2024-02-14T01:51:42;4.32;;;1.65;;
76417;SDS011;65250;47.602;19.002;2024-02-14T01:54:11;3.15;;;1.40;;
76417;SDS011;65250;47.602;19.002;2024-02-14T01:56:39;3.17;;;1.40;;
76417;SDS011;65250;47.602;19.002;2024-02-14T01:59:06;3.58;;;1.85;;
76417;SDS011;65250;47.602;19.002;2024-02-14T02:01:35;5.57;;;2.20;;
76417;SDS011;65250;47.602;19.002;2024-02-14T02:04:02;5.45;;;1.92;;
76417;SDS011;65250;47.602;19.002;2024-02-14T02:06:29;4.88;;;2.20;;
76417;SDS011;65250;47.602;19.002;2024-02-14T02:08:57;3.63;;;2.20;;
76417;SDS011;65250;47.602;19.002;2024-02-14T02:11:25;5.45;;;2.28;;
76417;SDS011;65250;47.602;19.002;2024-02-14T02:13:52;6.85;;;2.40;;
76417;SDS011;65250;47.602;19.002;2024-02-14T02:16:19;5.10;;;1.83;;
76417;SDS011;65250;47.602;19.002;2024-02-14T02:18:47;3.72;;;1.92;;
76417;SDS011;65250;47.602;19.002;2024-02-14T02:21:15;3.70;;;1.60;;
76417;SDS011;65250;47.602;19.002;2024-02-14T02:23:46;4.47;;;1.40;;
76417;SDS011;65250;47.602;19.002;2024-02-14T02:26:13;2.75;;;0.93;;
76417;SDS011;65250;47.602;19.002;2024-02-14T02:28:41;2.50;;;1.30;;
76417;SDS011;65250;47.602;19.002;2024-02-14T02:31:09;2.22;;;1.17;;
76417;SDS011;65250;47.602;19.002;2024-02-14T02:33:36;2.50;;;1.17;;
76417;SDS011;65250;47.602;19.002;2024-02-14T02:36:03;4.47;;;1.20;;
76417;SDS011;65250;47.602;19.002;2024-02-14T02:38:30;2.58;;;1.25;;
76417;SDS011;65250;47.602;19.002;2024-02-14T02:40:57;2.85;;;1.15;;
76417;SDS011;65250;47.602;19.002;2024-02-14T02:43:24;2.70;;;1.35;;
76417;SDS011;65250;47.602;19.002;2024-02-14T02:45:51;3.45;;;1.17;;
76417;SDS011;65250;47.602;19.002;2024-02-14T02:48:18;2.88;;;1.00;;
76417;SDS011;65250;47.602;19.002;2024-02-14T02:50:47;2.08;;;0.93;;
76417;SDS011;65250;47.602;19.002;2024-02-14T02:53:16;3.88;;;1.30;;
76417;SDS011;65250;47.602;19.002;2024-02-14T02:55:43;4.68;;;1.20;;
76417;SDS011;65250;47.602;19.002;2024-02-14T02:58:10;2.22;;;1.15;;
76417;SDS011;65250;47.602;19.002;2024-02-14T03:00:37;3.53;;;1.50;;
76417;SDS011;65250;47.602;19.002;2024-02-14T03:03:07;3.03;;;1.58;;
76417;SDS011;65250;47.602;19.002;2024-02-14T03:05:34;2.35;;;1.27;;
76417;SDS011;65250;47.602;19.002;2024-02-14T03:08:01;2.17;;;1.08;;
76417;SDS011;65250;47.602;19.002;2024-02-14T03:10:28;2.17;;;1.15;;
76417;SDS011;65250;47.602;19.002;2024-02-14T03:12:56;2.88;;;1.10;;
76417;SDS011;65250;47.602;19.002;2024-02-14T03:15:23;3.70;;;1.35;;
76417;SDS011;65250;47.602;19.002;2024-02-14T03:17:52;4.45;;;1.50;;
76417;SDS011;65250;47.602;19.002;2024-02-14T03:20:19;2.58;;;1.60;;
76417;SDS011;65250;47.602;19.002;2024-02-14T03:22:46;3.60;;;1.42;;
76417;SDS011;65250;47.602;19.002;2024-02-14T03:25:18;5.35;;;2.17;;
76417;SDS011;65250;47.602;19.002;2024-02-14T03:27:45;3.95;;;1.92;;
76417;SDS011;65250;47.602;19.002;2024-02-14T03:30:16;5.38;;;2.30;;
76417;SDS011;65250;47.602;19.002;2024-02-14T03:32:44;6.03;;;2.60;;
76417;SDS011;65250;47.602;19.002;2024-02-14T03:35:12;4.55;;;2.50;;
76417;SDS011;65250;47.602;19.002;2024-02-14T03:37:43;8.23;;;3.15;;
76417;SDS011;65250;47.602;19.002;2024-02-14T03:40:14;5.53;;;2.67;;
76417;SDS011;65250;47.602;19.002;2024-02-14T03:42:41;8.43;;;3.10;;
76417;SDS011;65250;47.602;19.002;2024-02-14T03:45:08;5.80;;;3.03;;
76417;SDS011;65250;47.602;19.002;2024-02-14T03:47:36;7.38;;;3.35;;
76417;SDS011;65250;47.602;19.002;2024-02-14T03:50:09;8.45;;;4.05;;
76417;SDS011;65250;47.602;19.002;2024-02-14T03:52:36;7.32;;;3.38;;
76417;SDS011;65250;47.602;19.002;2024-02-14T03:55:05;6.20;;;2.58;;
76417;SDS011;65250;47.602;19.002;2024-02-14T03:57:32;5.55;;;3.10;;
76417;SDS011;65250;47.602;19.002;2024-02-14T04:00:02;7.38;;;3.17;;
76417;SDS011;65250;47.602;19.002;2024-02-14T04:02:30;4.97;;;2.30;;
76417;SDS011;65250;47.602;19.002;2024-02-14T04:04:58;6.03;;;2.88;;
76417;SDS011;65250;47.602;19.002;2024-02-14T04:07:26;3.90;;;2.15;;
76417;SDS011;65250;47.602;19.002;2024-02-14T04:09:53;5.72;;;2.72;;
76417;SDS011;65250;47.602;19.002;2024-02-14T04:12:19;4.55;;;2.35;;
76417;SDS011;65250;47.602;19.002;2024-02-14T04:14:47;4.53;;;2.38;;
76417;SDS011;65250;47.602;19.002;2024-02-14T04:17:14;4.43;;;2.35;;
76417;SDS011;65250;47.602;19.002;2024-02-14T04:19:41;4.63;;;2.25;;
76417;SDS011;65250;47.602;19.002;2024-02-14T04:22:08;5.35;;;2.92;;
76417;SDS011;65250;47.602;19.002;2024-02-14T04:24:35;6.43;;;3.10;;
76417;SDS011;65250;47.602;19.002;2024-02-14T04:27:02;6.97;;;3.85;;
76417;SDS011;65250;47.602;19.002;2024-02-14T04:29:31;8.65;;;4.13;;
76417;SDS011;65250;47.602;19.002;2024-02-14T04:32:00;7.57;;;3.88;;
76417;SDS011;65250;47.602;19.002;2024-02-14T04:34:27;11.10;;;4.38;;
76417;SDS011;65250;47.602;19.002;2024-02-14T04:36:55;10.27;;;4.00;;
76417;SDS011;65250;47.602;19.002;2024-02-14T04:39:21;8.98;;;3.67;;
76417;SDS011;65250;47.602;19.002;2024-02-14T04:41:48;9.43;;;4.13;;
76417;SDS011;65250;47.602;19.002;2024-02-14T04:44:27;7.45;;;3.75;;
76417;SDS011;65250;47.602;19.002;2024-02-14T04:46:55;8.63;;;3.80;;
76417;SDS011;65250;47.602;19.002;2024-02-14T04:49:23;9.55;;;4.55;;
76417;SDS011;65250;47.602;19.002;2024-02-14T04:51:52;9.15;;;4.13;;
76417;SDS011;65250;47.602;19.002;2024-02-14T04:54:20;8.23;;;3.65;;
76417;SDS011;65250;47.602;19.002;2024-02-14T04:56:47;10.27;;;4.43;;
76417;SDS011;65250;47.602;19.002;2024-02-14T04:59:18;9.82;;;4.47;;
76417;SDS011;65250;47.602;19.002;2024-02-14T05:01:45;8.32;;;4.53;;
76417;SDS011;65250;47.602;19.002;2024-02-14T05:04:12;7.10;;;4.47;;
76417;SDS011;65250;47.602;19.002;2024-02-14T05:06:39;8.93;;;3.90;;
76417;SDS011;65250;47.602;19.002;2024-02-14T05:09:06;7.43;;;4.10;;
76417;SDS011;65250;47.602;19.002;2024-02-14T05:11:34;11.00;;;4.63;;
76417;SDS011;65250;47.602;19.002;2024-02-14T05:14:00;7.82;;;3.92;;
76417;SDS011;65250;47.602;19.002;2024-02-14T05:16:28;14.27;;;5.38;;
76417;SDS011;65250;47.602;19.002;2024-02-14T05:18:55;12.88;;;5.53;;
76417;SDS011;65250;47.602;19.002;2024-02-14T05:21:22;15.00;;;6.72;;
76417;SDS011;65250;47.602;19.002;2024-02-14T05:23:49;13.73;;;6.63;;
76417;SDS011;65250;47.602;19.002;2024-02-14T05:26:17;10.50;;;5.07;;
76417;SDS011;65250;47.602;19.002;2024-02-14T05:28:43;14.23;;;5.85;;
76417;SDS011;65250;47.602;19.002;2024-02-14T05:31:10;8.88;;;4.15;;
76417;SDS011;65250;47.602;19.002;2024-02-14T05:33:37;11.07;;;4.88;;
76417;SDS011;65250;47.602;19.002;2024-02-14T05:36:04;9.73;;;4.13;;
76417;SDS011;65250;47.602;19.002;2024-02-14T05:38:32;10.23;;;5.03;;
76417;SDS011;65250;47.602;19.002;2024-02-14T05:41:01;10.43;;;5.38;;
76417;SDS011;65250;47.602;19.002;2024-02-14T05:43:28;10.70;;;5.18;;
76417;SDS011;65250;47.602;19.002;2024-02-14T05:45:55;10.30;;;5.13;;
76417;SDS011;65250;47.602;19.002;2024-02-14T05:48:22;9.40;;;5.25;;
76417;SDS011;65250;47.602;19.002;2024-02-14T05:50:49;10.40;;;4.88;;
76417;SDS011;65250;47.602;19.002;2024-02-14T05:53:16;10.18;;;5.00;;
76417;SDS011;65250;47.602;19.002;2024-02-14T05:55:43;8.93;;;4.55;;
76417;SDS011;65250;47.602;19.002;2024-02-14T05:58:10;13.93;;;4.85;;
76417;SDS011;65250;47.602;19.002;2024-02-14T06:00:38;10.20;;;4.75;;
76417;SDS011;65250;47.602;19.002;2024-02-14T06:03:05;8.68;;;4.30;;
76417;SDS011;65250;47.602;19.002;2024-02-14T06:05:34;13.15;;;4.72;;
76417;SDS011;65250;47.602;19.002;2024-02-14T06:08:01;11.25;;;5.50;;
76417;SDS011;65250;47.602;19.002;2024-02-14T06:10:30;11.75;;;4.88;;
76417;SDS011;65250;47.602;19.002;2024-02-14T06:12:56;10.50;;;4.95;;
76417;SDS011;65250;47.602;19.002;2024-02-14T06:15:23;10.05;;;4.50;;
76417;SDS011;65250;47.602;19.002;2024-02-14T06:17:50;9.15;;;4.15;;
76417;SDS011;65250;47.602;19.002;2024-02-14T06:20:18;7.38;;;3.97;;
76417;SDS011;65250;47.602;19.002;2024-02-14T06:22:45;8.95;;;4.50;;
76417;SDS011;65250;47.602;19.002;2024-02-14T06:25:26;8.10;;;3.70;;
76417;SDS011;65250;47.602;19.002;2024-02-14T06:27:53;8.15;;;4.05;;
76417;SDS011;65250;47.602;19.002;2024-02-14T06:30:23;10.82;;;4.05;;
76417;SDS011;65250;47.602;19.002;2024-02-14T06:32:53;10.25;;;4.18;;
76417;SDS011;65250;47.602;19.002;2024-02-14T06:35:21;10.27;;;5.28;;
76417;SDS011;65250;47.602;19.002;2024-02-14T06:37:48;16.30;;;4.25;;
76417;SDS011;65250;47.602;19.002;2024-02-14T06:40:28;9.50;;;4.82;;
76417;SDS011;65250;47.602;19.002;2024-02-14T06:42:56;9.35;;;5.03;;
76417;SDS011;65250;47.602;19.002;2024-02-14T06:45:25;9.48;;;4.53;;
76417;SDS011;65250;47.602;19.002;2024-02-14T06:47:54;9.55;;;4.82;;
76417;SDS011;65250;47.602;19.002;2024-02-14T06:50:21;9.40;;;5.10;;
76417;SDS011;65250;47.602;19.002;2024-02-14T06:52:48;12.13;;;5.07;;
76417;SDS011;65250;47.602;19.002;2024-02-14T06:55:15;16.83;;;5.38;;
76417;SDS011;65250;47.602;19.002;2024-02-14T06:57:42;8.65;;;4.68;;
76417;SDS011;65250;47.602;19.002;2024-02-14T07:00:09;10.15;;;4.97;;
76417;SDS011;65250;47.602;19.002;2024-02-14T07:02:37;10.45;;;4.60;;
76417;SDS011;65250;47.602;19.002;2024-02-14T07:05:04;8.52;;;5.03;;
76417;SDS011;65250;47.602;19.002;2024-02-14T07:07:33;7.72;;;4.40;;
76417;SDS011;65250;47.602;19.002;2024-02-14T07:10:01;8.25;;;5.00;;
76417;SDS011;65250;47.602;19.002;2024-02-14T07:12:28;8.77;;;5.45;;
76417;SDS011;65250;47.602;19.002;2024-02-14T07:14:57;11.85;;;4.75;;
76417;SDS011;65250;47.602;19.002;2024-02-14T07:17:24;8.82;;;4.68;;
76417;SDS011;65250;47.602;19.002;2024-02-14T07:19:51;16.05;;;5.78;;
76417;SDS011;65250;47.602;19.002;2024-02-14T07:22:18;9.38;;;5.45;;
76417;SDS011;65250;47.602;19.002;2024-02-14T07:24:45;11.60;;;5.18;;
76417;SDS011;65250;47.602;19.002;2024-02-14T07:27:13;8.98;;;5.35;;
76417;SDS011;65250;47.602;19.002;2024-02-14T07:29:41;8.07;;;4.90;;
76417;SDS011;65250;47.602;19.002;2024-02-14T07:32:09;11.10;;;6.25;;
76417;SDS011;65250;47.602;19.002;2024-02-14T07:34:38;12.15;;;5.70;;
76417;SDS011;65250;47.602;19.002;2024-02-14T07:37:06;8.32;;;4.85;;
76417;SDS011;65250;47.602;19.002;2024-02-14T07:39:33;10.43;;;4.90;;
76417;SDS011;65250;47.602;19.002;2024-02-14T07:42:04;7.10;;;4.50;;
76417;SDS011;65250;47.602;19.002;2024-02-14T07:44:32;7.75;;;4.50;;
76417;SDS011;65250;47.602;19.002;2024-02-14T07:46:59;8.98;;;4.28;;
76417;SDS011;65250;47.602;19.002;2024-02-14T07:49:29;9.48;;;4.60;;
76417;SDS011;65250;47.602;19.002;2024-02-14T07:51:57;7.22;;;3.85;;
76417;SDS011;65250;47.602;19.002;2024-02-14T07:54:24;9.45;;;3.78;;
76417;SDS011;65250;47.602;19.002;2024-02-14T07:56:51;5.20;;;3.47;;
76417;SDS011;65250;47.602;19.002;2024-02-14T07:59:18;5.75;;;3.20;;
76417;SDS011;65250;47.602;19.002;2024-02-14T08:01:46;10.02;;;3.83;;
76417;SDS011;65250;47.602;19.002;2024-02-14T08:04:13;6.97;;;3.80;;
76417;SDS011;65250;47.602;19.002;2024-02-14T08:06:44;5.10;;;2.90;;
76417;SDS011;65250;47.602;19.002;2024-02-14T08:09:12;3.85;;;2.55;;
76417;SDS011;65250;47.602;19.002;2024-02-14T08:11:40;4.43;;;2.72;;
76417;SDS011;65250;47.602;19.002;2024-02-14T08:14:07;5.07;;;2.75;;
76417;SDS011;65250;47.602;19.002;2024-02-14T08:16:34;6.07;;;2.75;;
76417;SDS011;65250;47.602;19.002;2024-02-14T08:19:02;9.00;;;3.42;;
76417;SDS011;65250;47.602;19.002;2024-02-14T08:21:29;7.65;;;2.60;;
76417;SDS011;65250;47.602;19.002;2024-02-14T08:23:58;4.70;;;2.95;;
76417;SDS011;65250;47.602;19.002;2024-02-14T08:26:28;7.40;;;3.28;;
76417;SDS011;65250;47.602;19.002;2024-02-14T08:28:56;7.00;;;3.40;;
76417;SDS011;65250;47.602;19.002;2024-02-14T08:31:23;7.68;;;3.30;;
76417;SDS011;65250;47.602;19.002;2024-02-14T08:33:49;5.93;;;2.85;;
76417;SDS011;65250;47.602;19.002;2024-02-14T08:36:17;7.28;;;2.80;;
76417;SDS011;65250;47.602;19.002;2024-02-14T08:38:46;5.68;;;3.35;;
76417;SDS011;65250;47.602;19.002;2024-02-14T08:41:16;13.43;;;3.95;;
76417;SDS011;65250;47.602;19.002;2024-02-14T08:43:45;4.57;;;2.85;;
76417;SDS011;65250;47.602;19.002;2024-02-14T08:46:14;8.20;;;2.83;;
76417;SDS011;65250;47.602;19.002;2024-02-14T08:48:42;6.82;;;3.20;;
76417;SDS011;65250;47.602;19.002;2024-02-14T08:51:15;14.00;;;3.92;;
76417;SDS011;65250;47.602;19.002;2024-02-14T08:53:43;6.35;;;3.15;;
76417;SDS011;65250;47.602;19.002;2024-02-14T08:56:12;6.97;;;3.10;;
76417;SDS011;65250;47.602;19.002;2024-02-14T08:58:39;9.68;;;3.97;;
76417;SDS011;65250;47.602;19.002;2024-02-14T09:01:06;11.30;;;4.13;;
76417;SDS011;65250;47.602;19.002;2024-02-14T09:03:43;17.75;;;4.40;;
76417;SDS011;65250;47.602;19.002;2024-02-14T09:06:16;8.90;;;4.35;;
76417;SDS011;65250;47.602;19.002;2024-02-14T09:08:48;8.60;;;3.70;;
76417;SDS011;65250;47.602;19.002;2024-02-14T09:11:17;5.55;;;3.40;;
76417;SDS011;65250;47.602;19.002;2024-02-14T09:13:44;9.57;;;4.30;;
76417;SDS011;65250;47.602;19.002;2024-02-14T09:16:14;9.38;;;4.13;;
76417;SDS011;65250;47.602;19.002;2024-02-14T09:18:42;8.70;;;4.30;;
76417;SDS011;65250;47.602;19.002;2024-02-14T09:21:09;8.95;;;3.13;;
76417;SDS011;65250;47.602;19.002;2024-02-14T09:23:36;5.72;;;3.30;;
76417;SDS011;65250;47.602;19.002;2024-02-14T09:26:06;9.82;;;3.58;;
76417;SDS011;65250;47.602;19.002;2024-02-14T09:28:33;5.57;;;3.70;;
76417;SDS011;65250;47.602;19.002;2024-02-14T09:31:01;6.07;;;3.53;;
76417;SDS011;65250;47.602;19.002;2024-02-14T09:33:30;7.57;;;3.55;;
76417;SDS011;65250;47.602;19.002;2024-02-14T09:35:58;7.20;;;3.17;;
76417;SDS011;65250;47.602;19.002;2024-02-14T09:38:24;6.93;;;3.22;;
76417;SDS011;65250;47.602;19.002;2024-02-14T09:40:53;7.55;;;3.83;;
76417;SDS011;65250;47.602;19.002;2024-02-14T09:46:04;6.18;;;4.10;;
76417;SDS011;65250;47.602;19.002;2024-02-14T09:48:32;7.30;;;4.05;;
76417;SDS011;65250;47.602;19.002;2024-02-14T09:51:00;10.25;;;3.63;;
76417;SDS011;65250;47.602;19.002;2024-02-14T09:53:27;6.60;;;4.10;;
76417;SDS011;65250;47.602;19.002;2024-02-14T09:55:55;5.93;;;2.63;;
76417;SDS011;65250;47.602;19.002;2024-02-14T09:58:22;6.50;;;2.80;;
76417;SDS011;65250;47.602;19.002;2024-02-14T10:00:50;4.90;;;2.72;;
76417;SDS011;65250;47.602;19.002;2024-02-14T10:03:17;3.17;;;1.92;;
76417;SDS011;65250;47.602;19.002;2024-02-14T10:05:44;4.15;;;1.50;;
76417;SDS011;65250;47.602;19.002;2024-02-14T10:08:11;2.38;;;1.35;;
76417;SDS011;65250;47.602;19.002;2024-02-14T10:10:38;4.50;;;1.70;;
76417;SDS011;65250;47.602;19.002;2024-02-14T10:13:05;5.43;;;1.50;;
76417;SDS011;65250;47.602;19.002;2024-02-14T10:15:33;4.22;;;1.90;;
76417;SDS011;65250;47.602;19.002;2024-02-14T10:18:00;4.07;;;1.98;;
76417;SDS011;65250;47.602;19.002;2024-02-14T10:20:28;4.43;;;2.20;;
76417;SDS011;65250;47.602;19.002;2024-02-14T10:23:00;6.75;;;2.10;;
76417;SDS011;65250;47.602;19.002;2024-02-14T10:25:29;3.42;;;2.00;;
76417;SDS011;65250;47.602;19.002;2024-02-14T10:28:03;4.20;;;2.22;;
76417;SDS011;65250;47.602;19.002;2024-02-14T10:30:31;4.25;;;2.38;;
76417;SDS011;65250;47.602;19.002;2024-02-14T10:32:58;4.82;;;1.92;;
76417;SDS011;65250;47.602;19.002;2024-02-14T10:35:39;3.88;;;2.05;;
76417;SDS011;65250;47.602;19.002;2024-02-14T10:38:08;4.78;;;2.13;;
76417;SDS011;65250;47.602;19.002;2024-02-14T10:40:38;4.53;;;1.80;;
76417;SDS011;65250;47.602;19.002;2024-02-14T10:43:08;6.50;;;1.98;;
76417;SDS011;65250;47.602;19.002;2024-02-14T10:45:35;7.72;;;2.20;;
76417;SDS011;65250;47.602;19.002;2024-02-14T10:48:06;2.43;;;1.63;;
76417;SDS011;65250;47.602;19.002;2024-02-14T10:50:34;4.35;;;2.28;;
76417;SDS011;65250;47.602;19.002;2024-02-14T10:53:06;8.18;;;2.42;;
76417;SDS011;65250;47.602;19.002;2024-02-14T10:55:41;10.00;;;3.05;;
76417;SDS011;65250;47.602;19.002;2024-02-14T10:58:12;9.25;;;3.00;;
76417;SDS011;65250;47.602;19.002;2024-02-14T11:00:41;9.85;;;2.55;;
76417;SDS011;65250;47.602;19.002;2024-02-14T11:03:08;16.55;;;2.63;;
76417;SDS011;65250;47.602;19.002;2024-02-14T11:05:43;7.30;;;2.55;;
76417;SDS011;65250;47.602;19.002;2024-02-14T11:08:18;10.02;;;2.78;;
76417;SDS011;65250;47.602;19.002;2024-02-14T11:10:53;4.70;;;2.13;;
76417;SDS011;65250;47.602;19.002;2024-02-14T11:13:21;10.07;;;2.50;;
76417;SDS011;65250;47.602;19.002;2024-02-14T11:15:52;6.57;;;2.13;;
76417;SDS011;65250;47.602;19.002;2024-02-14T11:18:27;3.65;;;2.50;;
76417;SDS011;65250;47.602;19.002;2024-02-14T11:21:02;4.00;;;2.70;;
76417;SDS011;65250;47.602;19.002;2024-02-14T11:23:30;4.47;;;2.85;;
76417;SDS011;65250;47.602;19.002;2024-02-14T11:26:01;4.07;;;2.67;;
76417;SDS011;65250;47.602;19.002;2024-02-14T11:28:29;5.28;;;2.80;;
76417;SDS011;65250;47.602;19.002;2024-02-14T11:31:00;4.40;;;2.90;;
76417;SDS011;65250;47.602;19.002;2024-02-14T11:33:27;6.97;;;3.13;;
76417;SDS011;65250;47.602;19.002;2024-02-14T11:35:54;5.97;;;3.17;;
76417;SDS011;65250;47.602;19.002;2024-02-14T11:38:22;5.65;;;2.90;;
76417;SDS011;65250;47.602;19.002;2024-02-14T11:40:55;4.63;;;3.10;;
76417;SDS011;65250;47.602;19.002;2024-02-14T11:43:23;3.55;;;2.60;;
76417;SDS011;65250;47.602;19.002;2024-02-14T11:45:51;3.22;;;2.45;;
76417;SDS011;65250;47.602;19.002;2024-02-14T11:48:21;3.85;;;2.50;;
76417;SDS011;65250;47.602;19.002;2024-02-14T11:50:51;9.10;;;3.25;;
76417;SDS011;65250;47.602;19.002;2024-02-14T11:53:20;6.68;;;2.45;;
76417;SDS011;65250;47.602;19.002;2024-02-14T11:55:47;12.05;;;2.90;;
76417;SDS011;65250;47.602;19.002;2024-02-14T11:58:14;14.32;;;3.22;;
76417;SDS011;65250;47.602;19.002;2024-02-14T12:00:43;8.50;;;2.83;;
76417;SDS011;65250;47.602;19.002;2024-02-14T12:03:12;12.85;;;2.42;;
76417;SDS011;65250;47.602;19.002;2024-02-14T12:05:42;3.92;;;2.85;;
76417;SDS011;65250;47.602;19.002;2024-02-14T12:08:14;6.80;;;2.78;;
76417;SDS011;65250;47.602;19.002;2024-02-14T12:10:45;7.60;;;2.80;;
76417;SDS011;65250;47.602;19.002;2024-02-14T12:13:22;9.55;;;2.80;;
76417;SDS011;65250;47.602;19.002;2024-02-14T12:15:49;10.93;;;3.83;;
76417;SDS011;65250;47.602;19.002;2024-02-14T12:18:18;3.75;;;2.83;;
76417;SDS011;65250;47.602;19.002;2024-02-14T12:20:46;4.25;;;2.78;;
76417;SDS011;65250;47.602;19.002;2024-02-14T12:23:20;6.43;;;2.47;;
76417;SDS011;65250;47.602;19.002;2024-02-14T12:25:48;5.68;;;2.78;;
76417;SDS011;65250;47.602;19.002;2024-02-14T12:28:16;5.13;;;2.42;;
76417;SDS011;65250;47.602;19.002;2024-02-14T12:30:45;3.50;;;3.00;;
76417;SDS011;65250;47.602;19.002;2024-02-14T12:33:13;3.85;;;2.80;;
76417;SDS011;65250;47.602;19.002;2024-02-14T12:35:44;5.90;;;3.63;;
76417;SDS011;65250;47.602;19.002;2024-02-14T12:38:12;6.43;;;3.25;;
76417;SDS011;65250;47.602;19.002;2024-02-14T12:40:40;7.88;;;3.30;;
76417;SDS011;65250;47.602;19.002;2024-02-14T12:43:11;6.70;;;3.58;;
76417;SDS011;65250;47.602;19.002;2024-02-14T12:45:39;8.38;;;3.67;;
76417;SDS011;65250;47.602;19.002;2024-02-14T12:48:07;9.27;;;4.00;;
76417;SDS011;65250;47.602;19.002;2024-02-14T12:50:36;7.78;;;4.07;;
76417;SDS011;65250;47.602;19.002;2024-02-14T12:53:09;9.65;;;3.95;;
76417;SDS011;65250;47.602;19.002;2024-02-14T12:55:36;6.90;;;3.70;;
76417;SDS011;65250;47.602;19.002;2024-02-14T12:58:03;9.07;;;3.20;;
76417;SDS011;65250;47.602;19.002;2024-02-14T13:00:30;8.38;;;3.30;;
76417;SDS011;65250;47.602;19.002;2024-02-14T13:02:59;17.05;;;4.35;;
76417;SDS011;65250;47.602;19.002;2024-02-14T13:05:27;9.52;;;3.95;;
76417;SDS011;65250;47.602;19.002;2024-02-14T13:07:54;8.27;;;4.00;;
76417;SDS011;65250;47.602;19.002;2024-02-14T13:10:21;16.38;;;5.60;;
76417;SDS011;65250;47.602;19.002;2024-02-14T13:12:48;8.00;;;3.80;;
76417;SDS011;65250;47.602;19.002;2024-02-14T13:15:16;11.68;;;5.10;;
76417;SDS011;65250;47.602;19.002;2024-02-14T13:17:43;11.75;;;3.63;;
76417;SDS011;65250;47.602;19.002;2024-02-14T13:20:11;8.73;;;3.63;;
76417;SDS011;65250;47.602;19.002;2024-02-14T13:22:39;7.78;;;4.00;;
76417;SDS011;65250;47.602;19.002;2024-02-14T13:25:06;16.17;;;4.72;;
76417;SDS011;65250;47.602;19.002;2024-02-14T13:27:33;10.88;;;5.28;;
76417;SDS011;65250;47.602;19.002;2024-02-14T13:30:03;8.48;;;4.03;;
76417;SDS011;65250;47.602;19.002;2024-02-14T13:32:31;6.65;;;3.92;;
76417;SDS011;65250;47.602;19.002;2024-02-14T13:34:58;9.05;;;4.35;;
76417;SDS011;65250;47.602;19.002;2024-02-14T13:37:25;8.20;;;4.07;;
76417;SDS011;65250;47.602;19.002;2024-02-14T13:39:52;9.15;;;4.18;;
76417;SDS011;65250;47.602;19.002;2024-02-14T13:42:19;9.48;;;3.90;;
76417;SDS011;65250;47.602;19.002;2024-02-14T13:44:46;6.72;;;4.07;;
76417;SDS011;65250;47.602;19.002;2024-02-14T13:47:14;8.80;;;5.40;;
76417;SDS011;65250;47.602;19.002;2024-02-14T13:49:45;8.68;;;5.18;;
76417;SDS011;65250;47.602;19.002;2024-02-14T13:52:12;8.07;;;4.00;;
76417;SDS011;65250;47.602;19.002;2024-02-14T13:54:38;7.53;;;4.10;;
76417;SDS011;65250;47.602;19.002;2024-02-14T13:57:05;8.18;;;4.35;;
76417;SDS011;65250;47.602;19.002;2024-02-14T13:59:32;8.20;;;4.43;;
76417;SDS011;65250;47.602;19.002;2024-02-14T14:01:59;6.65;;;3.50;;
76417;SDS011;65250;47.602;19.002;2024-02-14T14:04:26;6.25;;;3.90;;
76417;SDS011;65250;47.602;19.002;2024-02-14T14:06:53;5.28;;;3.53;;
76417;SDS011;65250;47.602;19.002;2024-02-14T14:09:22;6.85;;;3.75;;
76417;SDS011;65250;47.602;19.002;2024-02-14T14:11:49;7.57;;;3.58;;
76417;SDS011;65250;47.602;19.002;2024-02-14T14:14:19;8.32;;;4.30;;
76417;SDS011;65250;47.602;19.002;2024-02-14T14:16:46;6.57;;;3.85;;
76417;SDS011;65250;47.602;19.002;2024-02-14T14:19:14;7.20;;;3.53;;
76417;SDS011;65250;47.602;19.002;2024-02-14T14:21:41;5.30;;;3.42;;
76417;SDS011;65250;47.602;19.002;2024-02-14T14:24:07;6.30;;;3.65;;
76417;SDS011;65250;47.602;19.002;2024-02-14T14:26:34;5.93;;;3.53;;
76417;SDS011;65250;47.602;19.002;2024-02-14T14:29:01;11.02;;;3.60;;
76417;SDS011;65250;47.602;19.002;2024-02-14T14:31:28;8.63;;;3.65;;
76417;SDS011;65250;47.602;19.002;2024-02-14T14:33:56;7.90;;;4.13;;
76417;SDS011;65250;47.602;19.002;2024-02-14T14:36:24;6.32;;;3.55;;
76417;SDS011;65250;47.602;19.002;2024-02-14T14:38:52;8.05;;;4.00;;
76417;SDS011;65250;47.602;19.002;2024-02-14T14:41:20;10.35;;;3.75;;